Terminal Aerodrome Forecast
Issued by NWS Charleston, WV

Current Version | Previous Version | Graphics & Text | Print | Product List | Glossary On
Versions: 1 2 3 4 5 6 7 8 9 10 11 12 13 14 15 16 17 18 19 20 21 22 23 24 25
000
FTUS41 KRLX 250700 AAA
TAFEKN
TAF AMD
KEKN 250717Z 2507/2606 26007G20KT P6SM SCT120
      TEMPO 2507/2509 BKN035
     FM250900 26008KT P6SM BKN050
     FM251500 26006KT P6SM SCT040
     FM252300 00000KT P6SM BKN250
     FM260500 00000KT P6SM BKN030=

USA.gov is the U.S. government's official web portal to all federal, state and local government web resources and services.